sensor_id;sensor_type;location;lat;lon;timestamp;temperature;humidity
51253;DHT22;38936;47.808;19.936;2022-10-16T00:00:28;12.20;99.90
51253;DHT22;38936;47.808;19.936;2022-10-16T00:02:53;12.20;99.90
51253;DHT22;38936;47.808;19.936;2022-10-16T00:05:19;12.30;99.90
51253;DHT22;38936;47.808;19.936;2022-10-16T00:07:44;12.30;99.90
51253;DHT22;38936;47.808;19.936;2022-10-16T00:10:10;12.30;99.90
51253;DHT22;38936;47.808;19.936;2022-10-16T00:12:35;12.40;99.90
51253;DHT22;38936;47.808;19.936;2022-10-16T00:15:01;12.40;99.90
51253;DHT22;38936;47.808;19.936;2022-10-16T00:17:27;12.40;99.90
51253;DHT22;38936;47.808;19.936;2022-10-16T00:19:52;12.30;99.90
51253;DHT22;38936;47.808;19.936;2022-10-16T00:22:18;12.30;99.90
51253;DHT22;38936;47.808;19.936;2022-10-16T00:24:43;12.30;99.90
51253;DHT22;38936;47.808;19.936;2022-10-16T00:27:09;12.30;99.90
51253;DHT22;38936;47.808;19.936;2022-10-16T00:29:34;12.20;99.90
51253;DHT22;38936;47.808;19.936;2022-10-16T00:32:00;12.20;99.90
51253;DHT22;38936;47.808;19.936;2022-10-16T00:34:25;12.30;99.90
51253;DHT22;38936;47.808;19.936;2022-10-16T00:36:51;12.30;99.90
51253;DHT22;38936;47.808;19.936;2022-10-16T00:39:16;12.30;99.90
51253;DHT22;38936;47.808;19.936;2022-10-16T00:41:42;12.30;99.90
51253;DHT22;38936;47.808;19.936;2022-10-16T00:46:52;12.40;99.90
51253;DHT22;38936;47.808;19.936;2022-10-16T00:49:18;12.40;99.90
51253;DHT22;38936;47.808;19.936;2022-10-16T00:51:50;12.50;99.90
51253;DHT22;38936;47.808;19.936;2022-10-16T00:54:22;12.50;99.90
51253;DHT22;38936;47.808;19.936;2022-10-16T00:56:49;12.60;99.90
51253;DHT22;38936;47.808;19.936;2022-10-16T00:59:25;12.60;99.90
51253;DHT22;38936;47.808;19.936;2022-10-16T01:01:52;12.60;99.90
51253;DHT22;38936;47.808;19.936;2022-10-16T01:04:18;12.60;99.90
51253;DHT22;38936;47.808;19.936;2022-10-16T01:07:09;12.60;99.90
51253;DHT22;38936;47.808;19.936;2022-10-16T01:15:23;12.70;99.90
51253;DHT22;38936;47.808;19.936;2022-10-16T01:18:06;12.70;99.90
51253;DHT22;38936;47.808;19.936;2022-10-16T01:20:54;12.70;99.90
51253;DHT22;38936;47.808;19.936;2022-10-16T01:31:19;12.60;99.90
51253;DHT22;38936;47.808;19.936;2022-10-16T01:33:56;12.60;99.90
51253;DHT22;38936;47.808;19.936;2022-10-16T01:36:28;12.60;99.90
51253;DHT22;38936;47.808;19.936;2022-10-16T01:39:00;12.60;99.90
51253;DHT22;38936;47.808;19.936;2022-10-16T01:41:36;12.50;99.90
51253;DHT22;38936;47.808;19.936;2022-10-16T01:44:18;12.50;99.90
51253;DHT22;38936;47.808;19.936;2022-10-16T01:46:48;12.50;99.90
51253;DHT22;38936;47.808;19.936;2022-10-16T01:49:16;12.40;99.90
51253;DHT22;38936;47.808;19.936;2022-10-16T01:51:45;12.40;99.90
51253;DHT22;38936;47.808;19.936;2022-10-16T01:54:14;12.40;99.90
51253;DHT22;38936;47.808;19.936;2022-10-16T01:56:42;12.40;99.90
51253;DHT22;38936;47.808;19.936;2022-10-16T01:59:14;12.40;99.90
51253;DHT22;38936;47.808;19.936;2022-10-16T02:01:45;12.30;99.90
51253;DHT22;38936;47.808;19.936;2022-10-16T02:04:26;12.40;99.90
51253;DHT22;38936;47.808;19.936;2022-10-16T02:06:53;12.30;99.90
51253;DHT22;38936;47.808;19.936;2022-10-16T02:09:19;12.30;99.90
51253;DHT22;38936;47.808;19.936;2022-10-16T02:11:45;12.30;99.90
51253;DHT22;38936;47.808;19.936;2022-10-16T02:14:11;12.30;99.90
51253;DHT22;38936;47.808;19.936;2022-10-16T02:16:38;12.30;99.90
51253;DHT22;38936;47.808;19.936;2022-10-16T02:19:05;12.30;99.90
51253;DHT22;38936;47.808;19.936;2022-10-16T02:21:44;12.30;99.90
51253;DHT22;38936;47.808;19.936;2022-10-16T02:24:57;12.30;99.90
51253;DHT22;38936;47.808;19.936;2022-10-16T02:30:43;12.30;99.90
51253;DHT22;38936;47.808;19.936;2022-10-16T02:32:50;12.30;99.90
51253;DHT22;38936;47.808;19.936;2022-10-16T02:35:18;12.30;99.90
51253;DHT22;38936;47.808;19.936;2022-10-16T02:37:46;12.30;99.90
51253;DHT22;38936;47.808;19.936;2022-10-16T02:40:12;12.30;99.90
51253;DHT22;38936;47.808;19.936;2022-10-16T02:42:40;12.30;99.90
51253;DHT22;38936;47.808;19.936;2022-10-16T02:45:07;12.30;99.90
51253;DHT22;38936;47.808;19.936;2022-10-16T02:47:33;12.30;99.90
51253;DHT22;38936;47.808;19.936;2022-10-16T02:49:59;12.20;99.90
51253;DHT22;38936;47.808;19.936;2022-10-16T02:52:25;12.20;99.90
51253;DHT22;38936;47.808;19.936;2022-10-16T02:54:50;12.20;99.90
51253;DHT22;38936;47.808;19.936;2022-10-16T02:57:16;12.10;99.90
51253;DHT22;38936;47.808;19.936;2022-10-16T02:59:42;12.10;99.90
51253;DHT22;38936;47.808;19.936;2022-10-16T03:02:08;12.00;99.90
51253;DHT22;38936;47.808;19.936;2022-10-16T03:04:33;11.90;99.90
51253;DHT22;38936;47.808;19.936;2022-10-16T03:06:59;11.90;99.90
51253;DHT22;38936;47.808;19.936;2022-10-16T03:09:24;11.90;99.90
51253;DHT22;38936;47.808;19.936;2022-10-16T03:11:50;11.90;99.90
51253;DHT22;38936;47.808;19.936;2022-10-16T03:14:15;11.80;99.90
51253;DHT22;38936;47.808;19.936;2022-10-16T03:16:41;11.80;99.90
51253;DHT22;38936;47.808;19.936;2022-10-16T03:19:06;11.70;99.90
51253;DHT22;38936;47.808;19.936;2022-10-16T03:21:32;11.70;99.90
51253;DHT22;38936;47.808;19.936;2022-10-16T03:23:57;11.60;99.90
51253;DHT22;38936;47.808;19.936;2022-10-16T03:26:23;11.60;99.90
51253;DHT22;38936;47.808;19.936;2022-10-16T03:28:48;11.60;99.90
51253;DHT22;38936;47.808;19.936;2022-10-16T03:31:14;11.40;99.90
51253;DHT22;38936;47.808;19.936;2022-10-16T03:33:39;11.40;99.90
51253;DHT22;38936;47.808;19.936;2022-10-16T03:36:05;11.30;99.90
51253;DHT22;38936;47.808;19.936;2022-10-16T03:38:32;11.30;99.90
51253;DHT22;38936;47.808;19.936;2022-10-16T03:40:57;11.20;99.90
51253;DHT22;38936;47.808;19.936;2022-10-16T03:43:23;11.20;99.90
51253;DHT22;38936;47.808;19.936;2022-10-16T03:45:50;11.10;99.90
51253;DHT22;38936;47.808;19.936;2022-10-16T03:48:15;11.00;99.90
51253;DHT22;38936;47.808;19.936;2022-10-16T03:50:41;11.00;99.90
51253;DHT22;38936;47.808;19.936;2022-10-16T03:53:06;10.90;99.90
51253;DHT22;38936;47.808;19.936;2022-10-16T03:55:32;10.80;99.90
51253;DHT22;38936;47.808;19.936;2022-10-16T03:57:57;10.80;99.90
51253;DHT22;38936;47.808;19.936;2022-10-16T04:00:23;10.80;99.90
51253;DHT22;38936;47.808;19.936;2022-10-16T04:02:48;10.80;99.90
51253;DHT22;38936;47.808;19.936;2022-10-16T04:05:14;10.70;99.90
51253;DHT22;38936;47.808;19.936;2022-10-16T04:07:39;10.70;99.90
51253;DHT22;38936;47.808;19.936;2022-10-16T04:10:05;10.70;99.90
51253;DHT22;38936;47.808;19.936;2022-10-16T04:12:31;10.70;99.90
51253;DHT22;38936;47.808;19.936;2022-10-16T04:14:56;10.60;99.90
51253;DHT22;38936;47.808;19.936;2022-10-16T04:17:22;10.60;99.90
51253;DHT22;38936;47.808;19.936;2022-10-16T04:19:47;10.60;99.90
51253;DHT22;38936;47.808;19.936;2022-10-16T04:22:13;10.50;99.90
51253;DHT22;38936;47.808;19.936;2022-10-16T04:24:38;10.50;99.90
51253;DHT22;38936;47.808;19.936;2022-10-16T04:27:04;10.50;99.90
51253;DHT22;38936;47.808;19.936;2022-10-16T04:29:29;10.40;99.90
51253;DHT22;38936;47.808;19.936;2022-10-16T04:31:55;10.40;99.90
51253;DHT22;38936;47.808;19.936;2022-10-16T04:34:21;10.40;99.90
51253;DHT22;38936;47.808;19.936;2022-10-16T04:36:49;10.40;99.90
51253;DHT22;38936;47.808;19.936;2022-10-16T04:39:16;10.40;99.90
51253;DHT22;38936;47.808;19.936;2022-10-16T04:41:41;10.40;99.90
51253;DHT22;38936;47.808;19.936;2022-10-16T04:44:07;10.40;99.90
51253;DHT22;38936;47.808;19.936;2022-10-16T04:46:33;10.40;99.90
51253;DHT22;38936;47.808;19.936;2022-10-16T04:48:59;10.40;99.90
51253;DHT22;38936;47.808;19.936;2022-10-16T04:51:24;10.30;99.90
51253;DHT22;38936;47.808;19.936;2022-10-16T04:53:51;10.40;99.90
51253;DHT22;38936;47.808;19.936;2022-10-16T04:56:17;10.30;99.90
51253;DHT22;38936;47.808;19.936;2022-10-16T04:58:42;10.40;99.90
51253;DHT22;38936;47.808;19.936;2022-10-16T05:01:08;10.30;99.90
51253;DHT22;38936;47.808;19.936;2022-10-16T05:03:34;10.30;99.90
51253;DHT22;38936;47.808;19.936;2022-10-16T05:05:59;10.30;99.90
51253;DHT22;38936;47.808;19.936;2022-10-16T05:08:25;10.30;99.90
51253;DHT22;38936;47.808;19.936;2022-10-16T05:10:50;10.30;99.90
51253;DHT22;38936;47.808;19.936;2022-10-16T05:13:16;10.30;99.90
51253;DHT22;38936;47.808;19.936;2022-10-16T05:15:42;10.20;99.90
51253;DHT22;38936;47.808;19.936;2022-10-16T05:18:08;10.30;99.90
51253;DHT22;38936;47.808;19.936;2022-10-16T05:20:34;10.30;99.90
51253;DHT22;38936;47.808;19.936;2022-10-16T05:22:59;10.20;99.90
51253;DHT22;38936;47.808;19.936;2022-10-16T05:25:25;10.30;99.90
51253;DHT22;38936;47.808;19.936;2022-10-16T05:27:51;10.20;99.90
51253;DHT22;38936;47.808;19.936;2022-10-16T05:30:17;10.20;99.90
51253;DHT22;38936;47.808;19.936;2022-10-16T05:32:47;10.20;99.90
51253;DHT22;38936;47.808;19.936;2022-10-16T05:35:13;10.20;99.90
51253;DHT22;38936;47.808;19.936;2022-10-16T05:37:39;10.20;99.90
51253;DHT22;38936;47.808;19.936;2022-10-16T05:40:05;10.20;99.90
51253;DHT22;38936;47.808;19.936;2022-10-16T05:42:31;10.30;99.90
51253;DHT22;38936;47.808;19.936;2022-10-16T05:44:56;10.40;99.90
51253;DHT22;38936;47.808;19.936;2022-10-16T05:47:22;10.40;99.90
51253;DHT22;38936;47.808;19.936;2022-10-16T05:49:47;10.60;99.90
51253;DHT22;38936;47.808;19.936;2022-10-16T05:52:13;10.70;99.90
51253;DHT22;38936;47.808;19.936;2022-10-16T05:54:38;10.70;99.90
51253;DHT22;38936;47.808;19.936;2022-10-16T05:57:04;10.90;99.90
51253;DHT22;38936;47.808;19.936;2022-10-16T05:59:31;11.10;99.90
51253;DHT22;38936;47.808;19.936;2022-10-16T06:01:57;11.20;99.90
51253;DHT22;38936;47.808;19.936;2022-10-16T06:04:22;11.40;99.90
51253;DHT22;38936;47.808;19.936;2022-10-16T06:06:48;11.60;99.90
51253;DHT22;38936;47.808;19.936;2022-10-16T06:09:14;11.80;99.90
51253;DHT22;38936;47.808;19.936;2022-10-16T06:11:40;12.00;99.90
51253;DHT22;38936;47.808;19.936;2022-10-16T06:14:05;12.20;99.90
51253;DHT22;38936;47.808;19.936;2022-10-16T06:16:35;12.40;99.90
51253;DHT22;38936;47.808;19.936;2022-10-16T06:19:02;12.70;99.90
51253;DHT22;38936;47.808;19.936;2022-10-16T06:21:29;12.90;99.90
51253;DHT22;38936;47.808;19.936;2022-10-16T06:23:55;13.20;99.90
51253;DHT22;38936;47.808;19.936;2022-10-16T06:26:23;13.50;99.90
51253;DHT22;38936;47.808;19.936;2022-10-16T06:28:50;14.00;99.90
51253;DHT22;38936;47.808;19.936;2022-10-16T06:31:15;14.60;99.90
51253;DHT22;38936;47.808;19.936;2022-10-16T06:33:42;15.10;99.90
51253;DHT22;38936;47.808;19.936;2022-10-16T06:36:15;15.70;99.90
51253;DHT22;38936;47.808;19.936;2022-10-16T06:38:43;16.50;99.90
51253;DHT22;38936;47.808;19.936;2022-10-16T06:41:11;17.30;99.90
51253;DHT22;38936;47.808;19.936;2022-10-16T06:43:37;17.90;99.90
51253;DHT22;38936;47.808;19.936;2022-10-16T06:46:05;18.30;99.90
51253;DHT22;38936;47.808;19.936;2022-10-16T06:48:31;18.70;99.80
51253;DHT22;38936;47.808;19.936;2022-10-16T06:51:02;18.90;99.40
51253;DHT22;38936;47.808;19.936;2022-10-16T06:53:30;18.90;99.20
51253;DHT22;38936;47.808;19.936;2022-10-16T06:55:56;18.90;98.50
51253;DHT22;38936;47.808;19.936;2022-10-16T06:58:22;18.70;98.80
51253;DHT22;38936;47.808;19.936;2022-10-16T07:00:48;18.60;98.60
51253;DHT22;38936;47.808;19.936;2022-10-16T07:03:14;18.30;98.70
51253;DHT22;38936;47.808;19.936;2022-10-16T07:05:41;17.90;99.50
51253;DHT22;38936;47.808;19.936;2022-10-16T07:08:07;17.60;99.90
51253;DHT22;38936;47.808;19.936;2022-10-16T07:10:34;17.30;99.90
51253;DHT22;38936;47.808;19.936;2022-10-16T07:13:00;17.20;99.90
51253;DHT22;38936;47.808;19.936;2022-10-16T07:15:26;16.90;99.90
51253;DHT22;38936;47.808;19.936;2022-10-16T07:17:51;16.70;99.90
51253;DHT22;38936;47.808;19.936;2022-10-16T07:20:17;16.60;99.90
51253;DHT22;38936;47.808;19.936;2022-10-16T07:22:43;16.70;99.90
51253;DHT22;38936;47.808;19.936;2022-10-16T07:25:09;16.60;99.90
51253;DHT22;38936;47.808;19.936;2022-10-16T07:27:35;16.60;99.90
51253;DHT22;38936;47.808;19.936;2022-10-16T07:30:00;16.50;99.90
51253;DHT22;38936;47.808;19.936;2022-10-16T07:32:26;16.50;99.90
51253;DHT22;38936;47.808;19.936;2022-10-16T07:34:52;16.30;99.90
51253;DHT22;38936;47.808;19.936;2022-10-16T07:37:19;16.40;99.90
51253;DHT22;38936;47.808;19.936;2022-10-16T07:39:44;16.50;99.90
51253;DHT22;38936;47.808;19.936;2022-10-16T07:42:10;16.50;99.90
51253;DHT22;38936;47.808;19.936;2022-10-16T07:44:36;16.50;99.90
51253;DHT22;38936;47.808;19.936;2022-10-16T07:47:01;16.50;99.90
51253;DHT22;38936;47.808;19.936;2022-10-16T07:49:27;16.60;99.90
51253;DHT22;38936;47.808;19.936;2022-10-16T07:51:52;16.60;99.90
51253;DHT22;38936;47.808;19.936;2022-10-16T07:54:18;16.60;99.90
51253;DHT22;38936;47.808;19.936;2022-10-16T07:56:44;16.60;99.90
51253;DHT22;38936;47.808;19.936;2022-10-16T07:59:09;16.60;99.90
51253;DHT22;38936;47.808;19.936;2022-10-16T08:01:35;16.70;99.90
51253;DHT22;38936;47.808;19.936;2022-10-16T08:04:01;16.80;99.90
51253;DHT22;38936;47.808;19.936;2022-10-16T08:06:26;16.90;99.90
51253;DHT22;38936;47.808;19.936;2022-10-16T08:08:52;17.00;99.90
51253;DHT22;38936;47.808;19.936;2022-10-16T08:11:17;17.20;99.90
51253;DHT22;38936;47.808;19.936;2022-10-16T08:13:43;17.50;99.90
51253;DHT22;38936;47.808;19.936;2022-10-16T08:16:09;17.90;99.40
51253;DHT22;38936;47.808;19.936;2022-10-16T08:18:36;18.60;97.90
51253;DHT22;38936;47.808;19.936;2022-10-16T08:21:03;19.30;97.60
51253;DHT22;38936;47.808;19.936;2022-10-16T08:23:30;19.90;95.40
51253;DHT22;38936;47.808;19.936;2022-10-16T08:26:00;20.50;94.30
51253;DHT22;38936;47.808;19.936;2022-10-16T08:28:26;21.20;93.90
51253;DHT22;38936;47.808;19.936;2022-10-16T08:30:52;21.80;92.00
51253;DHT22;38936;47.808;19.936;2022-10-16T08:33:18;22.30;90.10
51253;DHT22;38936;47.808;19.936;2022-10-16T08:35:50;22.90;86.90
51253;DHT22;38936;47.808;19.936;2022-10-16T08:38:16;23.30;82.40
51253;DHT22;38936;47.808;19.936;2022-10-16T08:40:43;23.60;80.70
51253;DHT22;38936;47.808;19.936;2022-10-16T08:46:11;24.10;72.90
51253;DHT22;38936;47.808;19.936;2022-10-16T08:51:24;24.20;72.00
51253;DHT22;38936;47.808;19.936;2022-10-16T08:56:22;24.80;69.60
51253;DHT22;38936;47.808;19.936;2022-10-16T08:58:48;24.70;68.30
51253;DHT22;38936;47.808;19.936;2022-10-16T09:01:16;25.00;66.10
51253;DHT22;38936;47.808;19.936;2022-10-16T09:06:46;25.40;64.90
51253;DHT22;38936;47.808;19.936;2022-10-16T09:12:03;25.30;63.90
51253;DHT22;38936;47.808;19.936;2022-10-16T09:22:45;25.50;60.80
51253;DHT22;38936;47.808;19.936;2022-10-16T09:25:17;25.60;61.60
51253;DHT22;38936;47.808;19.936;2022-10-16T09:27:47;25.70;61.50
51253;DHT22;38936;47.808;19.936;2022-10-16T09:30:15;25.70;60.40
51253;DHT22;38936;47.808;19.936;2022-10-16T09:32:42;25.60;59.90
51253;DHT22;38936;47.808;19.936;2022-10-16T09:35:27;25.80;58.80
51253;DHT22;38936;47.808;19.936;2022-10-16T09:37:56;25.70;58.80
51253;DHT22;38936;47.808;19.936;2022-10-16T09:40:31;25.40;60.00
51253;DHT22;38936;47.808;19.936;2022-10-16T09:43:15;25.40;59.10
51253;DHT22;38936;47.808;19.936;2022-10-16T09:45:43;25.20;58.10
51253;DHT22;38936;47.808;19.936;2022-10-16T09:48:19;24.80;59.90
51253;DHT22;38936;47.808;19.936;2022-10-16T09:50:55;24.50;59.40
51253;DHT22;38936;47.808;19.936;2022-10-16T09:53:21;24.70;61.30
51253;DHT22;38936;47.808;19.936;2022-10-16T09:55:52;24.80;60.80
51253;DHT22;38936;47.808;19.936;2022-10-16T09:58:21;24.80;60.70
51253;DHT22;38936;47.808;19.936;2022-10-16T10:00:52;24.70;60.10
51253;DHT22;38936;47.808;19.936;2022-10-16T10:03:35;24.20;60.60
51253;DHT22;38936;47.808;19.936;2022-10-16T10:06:26;23.40;63.50
51253;DHT22;38936;47.808;19.936;2022-10-16T10:09:14;22.70;64.10
51253;DHT22;38936;47.808;19.936;2022-10-16T10:11:42;22.00;66.80
51253;DHT22;38936;47.808;19.936;2022-10-16T10:14:38;21.60;68.70
51253;DHT22;38936;47.808;19.936;2022-10-16T10:19:42;21.20;71.50
51253;DHT22;38936;47.808;19.936;2022-10-16T10:22:40;21.00;72.10
51253;DHT22;38936;47.808;19.936;2022-10-16T10:25:15;20.80;72.80
51253;DHT22;38936;47.808;19.936;2022-10-16T10:28:39;20.60;74.30
51253;DHT22;38936;47.808;19.936;2022-10-16T10:30:54;20.40;75.10
51253;DHT22;38936;47.808;19.936;2022-10-16T10:33:34;20.20;75.60
51253;DHT22;38936;47.808;19.936;2022-10-16T10:46:51;20.00;78.10
51253;DHT22;38936;47.808;19.936;2022-10-16T11:03:06;20.00;80.90
51253;DHT22;38936;47.808;19.936;2022-10-16T11:05:45;19.80;80.40
51253;DHT22;38936;47.808;19.936;2022-10-16T11:08:19;19.60;81.30
51253;DHT22;38936;47.808;19.936;2022-10-16T11:11:07;19.60;82.20
51253;DHT22;38936;47.808;19.936;2022-10-16T11:13:45;19.70;83.20
51253;DHT22;38936;47.808;19.936;2022-10-16T11:16:34;19.90;82.20
51253;DHT22;38936;47.808;19.936;2022-10-16T11:22:19;20.00;81.40
51253;DHT22;38936;47.808;19.936;2022-10-16T11:28:19;19.80;81.60
51253;DHT22;38936;47.808;19.936;2022-10-16T11:33:36;19.50;83.50
51253;DHT22;38936;47.808;19.936;2022-10-16T11:36:12;19.40;84.40
51253;DHT22;38936;47.808;19.936;2022-10-16T11:41:32;19.60;83.80
51253;DHT22;38936;47.808;19.936;2022-10-16T11:44:23;19.50;84.90
51253;DHT22;38936;47.808;19.936;2022-10-16T11:47:06;19.40;84.40
51253;DHT22;38936;47.808;19.936;2022-10-16T11:49:35;19.40;84.10
51253;DHT22;38936;47.808;19.936;2022-10-16T11:54:48;19.30;86.30
51253;DHT22;38936;47.808;19.936;2022-10-16T11:57:19;19.30;86.90
51253;DHT22;38936;47.808;19.936;2022-10-16T12:05:12;19.30;86.60
51253;DHT22;38936;47.808;19.936;2022-10-16T12:07:50;19.40;86.00
51253;DHT22;38936;47.808;19.936;2022-10-16T12:10:22;19.40;85.50
51253;DHT22;38936;47.808;19.936;2022-10-16T12:12:48;19.50;84.70
51253;DHT22;38936;47.808;19.936;2022-10-16T12:17:49;19.50;84.30
51253;DHT22;38936;47.808;19.936;2022-10-16T12:20:19;19.50;84.50
51253;DHT22;38936;47.808;19.936;2022-10-16T12:28:17;19.50;84.40
51253;DHT22;38936;47.808;19.936;2022-10-16T12:30:53;19.50;85.90
51253;DHT22;38936;47.808;19.936;2022-10-16T12:33:23;19.70;84.50
51253;DHT22;38936;47.808;19.936;2022-10-16T12:35:49;19.80;83.20
51253;DHT22;38936;47.808;19.936;2022-10-16T12:38:28;19.90;84.00
51253;DHT22;38936;47.808;19.936;2022-10-16T12:41:06;20.00;82.60
51253;DHT22;38936;47.808;19.936;2022-10-16T12:43:44;20.20;81.50
51253;DHT22;38936;47.808;19.936;2022-10-16T12:48:37;20.20;81.70
51253;DHT22;38936;47.808;19.936;2022-10-16T12:51:25;20.20;82.20
51253;DHT22;38936;47.808;19.936;2022-10-16T12:56:33;20.40;81.50
51253;DHT22;38936;47.808;19.936;2022-10-16T12:59:13;20.50;81.10
51253;DHT22;38936;47.808;19.936;2022-10-16T13:04:58;20.70;79.80
51253;DHT22;38936;47.808;19.936;2022-10-16T13:13:53;20.60;78.30
51253;DHT22;38936;47.808;19.936;2022-10-16T13:23:08;20.50;77.10
51253;DHT22;38936;47.808;19.936;2022-10-16T13:30:31;20.30;78.80
51253;DHT22;38936;47.808;19.936;2022-10-16T13:33:02;20.30;79.60
51253;DHT22;38936;47.808;19.936;2022-10-16T13:35:32;20.30;78.10
51253;DHT22;38936;47.808;19.936;2022-10-16T13:38:06;20.30;77.50
51253;DHT22;38936;47.808;19.936;2022-10-16T13:40:36;20.20;77.20
51253;DHT22;38936;47.808;19.936;2022-10-16T13:43:02;20.10;78.10
51253;DHT22;38936;47.808;19.936;2022-10-16T13:45:28;20.10;79.00
51253;DHT22;38936;47.808;19.936;2022-10-16T13:48:12;20.00;79.00
51253;DHT22;38936;47.808;19.936;2022-10-16T13:50:37;20.00;78.90
51253;DHT22;38936;47.808;19.936;2022-10-16T13:53:07;20.00;79.00
51253;DHT22;38936;47.808;19.936;2022-10-16T13:55:33;20.00;79.20
51253;DHT22;38936;47.808;19.936;2022-10-16T13:58:12;19.90;78.80
51253;DHT22;38936;47.808;19.936;2022-10-16T14:00:38;19.90;79.60
51253;DHT22;38936;47.808;19.936;2022-10-16T14:03:11;19.90;78.30
51253;DHT22;38936;47.808;19.936;2022-10-16T14:05:57;19.80;78.40
51253;DHT22;38936;47.808;19.936;2022-10-16T14:08:25;19.70;78.70
51253;DHT22;38936;47.808;19.936;2022-10-16T14:10:54;19.70;78.90
51253;DHT22;38936;47.808;19.936;2022-10-16T14:13:38;19.60;79.70
51253;DHT22;38936;47.808;19.936;2022-10-16T14:16:10;19.60;79.40
51253;DHT22;38936;47.808;19.936;2022-10-16T14:18:40;19.40;79.60
51253;DHT22;38936;47.808;19.936;2022-10-16T14:21:10;19.30;80.80
51253;DHT22;38936;47.808;19.936;2022-10-16T14:23:39;19.30;80.70
51253;DHT22;38936;47.808;19.936;2022-10-16T14:26:17;19.30;80.20
51253;DHT22;38936;47.808;19.936;2022-10-16T14:28:45;19.20;80.90
51253;DHT22;38936;47.808;19.936;2022-10-16T14:33:45;19.10;82.00
51253;DHT22;38936;47.808;19.936;2022-10-16T14:36:15;19.10;81.70
51253;DHT22;38936;47.808;19.936;2022-10-16T14:38:49;19.00;81.70
51253;DHT22;38936;47.808;19.936;2022-10-16T14:41:21;18.90;82.40
51253;DHT22;38936;47.808;19.936;2022-10-16T14:43:51;18.90;83.10
51253;DHT22;38936;47.808;19.936;2022-10-16T14:46:21;18.80;83.50
51253;DHT22;38936;47.808;19.936;2022-10-16T14:48:49;18.80;82.80
51253;DHT22;38936;47.808;19.936;2022-10-16T14:51:18;18.80;83.30
51253;DHT22;38936;47.808;19.936;2022-10-16T14:53:45;18.80;84.20
51253;DHT22;38936;47.808;19.936;2022-10-16T14:56:34;18.70;84.70
51253;DHT22;38936;47.808;19.936;2022-10-16T14:59:12;18.70;83.20
51253;DHT22;38936;47.808;19.936;2022-10-16T15:01:38;18.70;84.20
51253;DHT22;38936;47.808;19.936;2022-10-16T15:04:04;18.60;85.00
51253;DHT22;38936;47.808;19.936;2022-10-16T15:06:29;18.50;84.90
51253;DHT22;38936;47.808;19.936;2022-10-16T15:08:55;18.50;85.40
51253;DHT22;38936;47.808;19.936;2022-10-16T15:11:21;18.50;86.20
51253;DHT22;38936;47.808;19.936;2022-10-16T15:13:46;18.40;86.70
51253;DHT22;38936;47.808;19.936;2022-10-16T15:16:14;18.30;87.10
51253;DHT22;38936;47.808;19.936;2022-10-16T15:18:41;18.30;87.80
51253;DHT22;38936;47.808;19.936;2022-10-16T15:21:07;18.20;88.20
51253;DHT22;38936;47.808;19.936;2022-10-16T15:23:33;18.10;88.80
51253;DHT22;38936;47.808;19.936;2022-10-16T15:25:59;18.10;90.00
51253;DHT22;38936;47.808;19.936;2022-10-16T15:28:25;17.90;90.80
51253;DHT22;38936;47.808;19.936;2022-10-16T15:30:53;17.80;91.30
51253;DHT22;38936;47.808;19.936;2022-10-16T15:33:22;17.70;91.70
51253;DHT22;38936;47.808;19.936;2022-10-16T15:35:50;17.60;93.10
51253;DHT22;38936;47.808;19.936;2022-10-16T15:38:17;17.40;93.40
51253;DHT22;38936;47.808;19.936;2022-10-16T15:40:43;17.30;93.50
51253;DHT22;38936;47.808;19.936;2022-10-16T15:43:09;17.20;93.80
51253;DHT22;38936;47.808;19.936;2022-10-16T15:45:35;17.10;94.40
51253;DHT22;38936;47.808;19.936;2022-10-16T15:48:01;16.90;95.00
51253;DHT22;38936;47.808;19.936;2022-10-16T15:50:27;16.80;96.10
51253;DHT22;38936;47.808;19.936;2022-10-16T15:52:52;16.70;97.30
51253;DHT22;38936;47.808;19.936;2022-10-16T15:55:18;16.50;98.40
51253;DHT22;38936;47.808;19.936;2022-10-16T15:57:44;16.40;99.20
51253;DHT22;38936;47.808;19.936;2022-10-16T16:00:18;16.10;99.90
51253;DHT22;38936;47.808;19.936;2022-10-16T16:02:52;16.10;99.90
51253;DHT22;38936;47.808;19.936;2022-10-16T16:05:18;16.00;99.90
51253;DHT22;38936;47.808;19.936;2022-10-16T16:07:44;15.90;99.90
51253;DHT22;38936;47.808;19.936;2022-10-16T16:10:10;15.80;99.90
51253;DHT22;38936;47.808;19.936;2022-10-16T16:12:37;15.70;99.90
51253;DHT22;38936;47.808;19.936;2022-10-16T16:15:04;15.60;99.90
51253;DHT22;38936;47.808;19.936;2022-10-16T16:17:31;15.50;99.90
51253;DHT22;38936;47.808;19.936;2022-10-16T16:19:57;15.50;99.90
51253;DHT22;38936;47.808;19.936;2022-10-16T16:22:23;15.40;99.90
51253;DHT22;38936;47.808;19.936;2022-10-16T16:24:49;15.30;99.90
51253;DHT22;38936;47.808;19.936;2022-10-16T16:27:15;15.20;99.90
51253;DHT22;38936;47.808;19.936;2022-10-16T16:29:40;15.10;99.90
51253;DHT22;38936;47.808;19.936;2022-10-16T16:32:06;15.00;99.90
51253;DHT22;38936;47.808;19.936;2022-10-16T16:34:32;14.90;99.90
51253;DHT22;38936;47.808;19.936;2022-10-16T16:36:57;14.80;99.90
51253;DHT22;38936;47.808;19.936;2022-10-16T16:39:24;14.80;99.90
51253;DHT22;38936;47.808;19.936;2022-10-16T16:41:50;14.70;99.90
51253;DHT22;38936;47.808;19.936;2022-10-16T16:44:15;14.60;99.90
51253;DHT22;38936;47.808;19.936;2022-10-16T16:46:43;14.50;99.90
51253;DHT22;38936;47.808;19.936;2022-10-16T16:49:11;14.40;99.90
51253;DHT22;38936;47.808;19.936;2022-10-16T16:51:37;14.40;99.90
51253;DHT22;38936;47.808;19.936;2022-10-16T16:54:04;14.40;99.90
51253;DHT22;38936;47.808;19.936;2022-10-16T16:56:30;14.30;99.90
51253;DHT22;38936;47.808;19.936;2022-10-16T16:58:56;14.30;99.90
51253;DHT22;38936;47.808;19.936;2022-10-16T17:01:23;14.30;99.90
51253;DHT22;38936;47.808;19.936;2022-10-16T17:03:52;14.20;99.90
51253;DHT22;38936;47.808;19.936;2022-10-16T17:06:20;14.20;99.90
51253;DHT22;38936;47.808;19.936;2022-10-16T17:08:47;14.20;99.90
51253;DHT22;38936;47.808;19.936;2022-10-16T17:11:15;14.20;99.90
51253;DHT22;38936;47.808;19.936;2022-10-16T17:13:41;14.20;99.90
51253;DHT22;38936;47.808;19.936;2022-10-16T17:16:07;14.10;99.90
51253;DHT22;38936;47.808;19.936;2022-10-16T17:18:34;14.10;99.90
51253;DHT22;38936;47.808;19.936;2022-10-16T17:21:05;14.10;99.90
51253;DHT22;38936;47.808;19.936;2022-10-16T17:23:32;14.00;99.90
51253;DHT22;38936;47.808;19.936;2022-10-16T17:26:06;14.10;99.90
51253;DHT22;38936;47.808;19.936;2022-10-16T17:28:32;14.00;99.90
51253;DHT22;38936;47.808;19.936;2022-10-16T17:31:08;14.00;99.90